CYSJ

Saint John Airport

Saint John, , Canada
METAR CYSJ 220300Z 31008KT 3SM -SN BKN032 OVC050 M14/M16 A2961 RMK SC6SC2 SLP035
Observed Flight Rules
Jan-22 @ 03:00 UTC (an hour ago) Marginal Visual Flight Rules
Wind Visibility Clouds Conditions
310° at 8 knots 3 miles
  • Broken at 3,200' AGL
  • Overcast at 5,000' AGL
  • Light Snow
Temperatures Readings
Current -14°C / 7°F
Dewpoint -16°C / 3°F
Humidity 85%
Altimeter 29.61" Hg
Pressure 1003.5 hPa
Elevation 109
METAR CYSJ 220300Z 31008KT 3SM -SN BKN032 OVC050 M14/M16 A2961 RMK SC6SC2 SLP035
Observed Flight Rules
Jan-22 @ 03:00 UTC
(an hour ago)
MVFR
Wind Visibility
310° at 8 knots 3 miles
Clouds
  • Broken at 3,200' AGL
  • Overcast at 5,000' AGL
Conditions
  • Light Snow
Temperature Dewpoint
-14°C / 7°F -16°C / 3°F
Humidity Altimeter Pressure
85% 29.61" Hg 1003.5 hPa